createdAt,value
2022-08-04T00:01:51.147Z,76.15
2022-08-04T00:07:01.304Z,76.49
2022-08-04T00:12:07.790Z,76.65
2022-08-04T00:17:10.541Z,77.41
2022-08-04T00:22:14.657Z,82.82
2022-08-04T00:27:19.122Z,84.21
2022-08-04T00:32:33.929Z,84.71
2022-08-04T00:37:38.567Z,85.67
2022-08-04T00:42:58.344Z,87.56
2022-08-04T00:48:14.612Z,87.17
2022-08-04T00:53:32.540Z,88.46
2022-08-04T00:58:55.054Z,88.83
2022-08-04T01:04:04.941Z,82.87
2022-08-04T01:09:35.386Z,84.46
2022-08-04T01:14:53.423Z,82.35
2022-08-04T01:20:03.336Z,84.27
2022-08-04T01:25:30.278Z,85.57
2022-08-04T01:30:41.502Z,84.38
2022-08-04T01:35:49.828Z,86.07
2022-08-04T01:40:54.626Z,88.66
2022-08-04T01:46:01.458Z,86.84
2022-08-04T01:51:06.425Z,89.66
2022-08-04T01:56:11.574Z,91.77
2022-08-04T02:01:15.695Z,94.00
2022-08-04T02:06:32.438Z,92.45
2022-08-04T02:11:35.464Z,91.65
2022-08-04T02:16:52.722Z,87.81
2022-08-04T02:21:59.129Z,89.51
2022-08-04T02:27:06.268Z,90.01
2022-08-04T02:32:16.419Z,95.58
2022-08-04T02:37:19.515Z,95.88
2022-08-04T02:42:23.658Z,91.11
2022-08-04T02:48:29.085Z,91.32
2022-08-04T02:52:53.384Z,91.19
2022-08-04T02:57:59.290Z,95.18
2022-08-04T03:03:22.078Z,97.96
2022-08-04T03:09:01.077Z,98.65
2022-08-04T03:14:50.782Z,98.14
2022-08-04T03:20:34.636Z,97.32
2022-08-04T03:26:15.683Z,93.18
2022-08-04T03:31:48.695Z,91.87
2022-08-04T03:37:23.009Z,94.14
2022-08-04T03:42:57.878Z,95.31
2022-08-04T03:48:21.776Z,97.90
2022-08-04T03:53:40.542Z,99.79
2022-08-04T03:59:20.760Z,99.18
2022-08-04T04:04:47.371Z,99.51
2022-08-04T04:10:28.735Z,99.96
2022-08-04T04:15:52.184Z,100.00
2022-08-04T04:21:10.838Z,100.00
2022-08-04T04:26:37.138Z,98.36
2022-08-04T04:31:58.617Z,97.17
2022-08-04T04:37:18.485Z,95.12
2022-08-04T04:42:37.346Z,95.55
2022-08-04T04:48:05.922Z,98.65
2022-08-04T04:53:21.823Z,97.23
2022-08-04T04:58:28.132Z,96.61
2022-08-04T05:03:44.651Z,95.96
2022-08-04T05:09:01.571Z,95.32
2022-08-04T05:14:35.949Z,95.20
2022-08-04T05:19:46.772Z,96.42
2022-08-04T05:24:53.563Z,94.35
2022-08-04T05:30:02.305Z,92.46
2022-08-04T05:35:10.263Z,90.39
2022-08-04T05:40:14.698Z,90.74
2022-08-04T05:45:20.285Z,88.97
2022-08-04T05:50:24.853Z,85.78
2022-08-04T05:55:49.046Z,83.18
2022-08-04T06:00:54.505Z,82.94
2022-08-04T06:05:59.711Z,81.33
2022-08-04T06:11:07.241Z,77.69
2022-08-04T06:16:28.535Z,74.93
2022-08-04T06:21:34.886Z,73.54
2022-08-04T06:26:40.335Z,72.73
2022-08-04T06:32:30.488Z,71.91
2022-08-04T06:37:10.912Z,70.17
2022-08-04T06:42:22.078Z,68.78
2022-08-04T06:47:30.206Z,68.08
2022-08-04T06:52:33.176Z,67.50
2022-08-04T06:57:39.302Z,67.90
2022-08-04T07:02:45.813Z,66.43
2022-08-04T07:07:56.977Z,65.32
2022-08-04T07:13:02.478Z,63.78
2022-08-04T07:18:06.833Z,62.85
2022-08-04T07:23:11.975Z,62.27
2022-08-04T07:28:15.222Z,60.67
2022-08-04T07:33:20.358Z,60.64
2022-08-04T07:38:27.536Z,59.23
2022-08-04T07:43:32.295Z,57.07
2022-08-04T07:48:36.760Z,57.25
2022-08-04T07:53:55.047Z,56.44
2022-08-04T07:58:59.393Z,55.04
2022-08-04T08:04:06.568Z,54.28
2022-08-04T08:09:12.882Z,52.88
2022-08-04T08:14:17.911Z,53.02
2022-08-04T08:19:24.535Z,52.73
2022-08-04T08:24:27.659Z,51.99
2022-08-04T08:29:31.313Z,51.92
2022-08-04T08:34:35.902Z,51.19
2022-08-04T08:39:43.515Z,51.49
2022-08-04T08:45:31.310Z,50.14
2022-08-04T08:51:04.003Z,48.59
2022-08-04T08:56:31.383Z,48.66
2022-08-04T09:01:50.178Z,47.13
2022-08-04T09:07:23.280Z,46.71
2022-08-04T09:12:31.292Z,45.06
2022-08-04T09:17:41.871Z,44.22
2022-08-04T09:22:51.775Z,44.26
2022-08-04T09:27:56.802Z,44.94
2022-08-04T09:33:08.639Z,45.24
2022-08-04T09:38:20.006Z,43.66
2022-08-04T09:43:57.034Z,44.19
2022-08-04T09:49:06.396Z,42.77
2022-08-04T09:54:30.217Z,41.75
2022-08-04T09:59:42.230Z,41.91
2022-08-04T10:04:46.479Z,38.92
2022-08-04T10:09:59.679Z,38.42
2022-08-04T10:15:12.039Z,37.37
2022-08-04T10:20:35.923Z,37.98
2022-08-04T10:26:07.241Z,36.92
2022-08-04T10:31:20.417Z,35.64
2022-08-04T10:36:28.357Z,36.45
2022-08-04T10:41:40.869Z,35.69
2022-08-04T10:46:52.351Z,33.10
2022-08-04T10:52:03.067Z,34.02
2022-08-04T10:57:09.978Z,33.78
2022-08-04T11:02:27.075Z,34.04
2022-08-04T11:07:36.461Z,32.31
2022-08-04T11:12:43.668Z,32.53
2022-08-04T11:17:51.433Z,31.42
2022-08-04T11:23:04.211Z,32.31
2022-08-04T11:28:16.536Z,32.91
2022-08-04T11:33:25.203Z,31.04
2022-08-04T11:38:34.550Z,31.36
2022-08-04T11:44:01.329Z,29.77
2022-08-04T11:49:10.323Z,30.89
2022-08-04T11:54:15.628Z,31.39
2022-08-04T11:59:23.951Z,30.26
2022-08-04T12:04:35.846Z,29.59
2022-08-04T12:09:48.042Z,29.30
2022-08-04T12:15:00.820Z,28.53
2022-08-04T12:20:38.309Z,28.15
2022-08-04T12:25:35.436Z,26.00
2022-08-04T12:30:58.369Z,25.94
2022-08-04T12:36:21.400Z,24.65
2022-08-04T12:41:27.109Z,24.00
2022-08-04T12:46:34.090Z,23.80
2022-08-04T12:52:07.759Z,24.74
2022-08-04T12:57:05.257Z,23.13
2022-08-04T13:07:50.791Z,25.02
2022-08-04T13:12:57.343Z,25.66
2022-08-04T13:18:05.100Z,25.56
2022-08-04T13:23:10.595Z,26.37
2022-08-04T13:28:17.659Z,26.42
2022-08-04T13:33:24.632Z,25.92
2022-08-04T13:38:56.325Z,27.57
2022-08-04T13:44:17.500Z,28.37
2022-08-04T13:49:37.667Z,28.75
2022-08-04T13:54:48.769Z,28.38
2022-08-04T14:00:01.173Z,27.13
2022-08-04T14:05:18.689Z,27.15
2022-08-04T14:10:24.321Z,28.77
2022-08-04T14:16:01.485Z,29.10
2022-08-04T14:21:02.306Z,28.88
2022-08-04T14:26:15.870Z,26.35
2022-08-04T14:31:21.056Z,26.11
2022-08-04T14:36:25.479Z,27.93
2022-08-04T14:41:34.847Z,30.19
2022-08-04T14:46:51.688Z,29.70
2022-08-04T14:51:58.963Z,27.04
2022-08-04T14:57:05.499Z,25.37
2022-08-04T15:02:09.541Z,27.05
2022-08-04T15:07:14.456Z,27.98
2022-08-04T15:12:20.138Z,29.85
2022-08-04T15:17:29.989Z,31.12
2022-08-04T15:22:35.753Z,31.37
2022-08-04T15:27:41.534Z,31.89
2022-08-04T15:32:51.183Z,29.70
2022-08-04T15:38:03.848Z,25.31
2022-08-04T15:43:25.439Z,23.89
2022-08-04T15:48:28.958Z,24.28
2022-08-04T15:54:24.392Z,22.51
2022-08-04T16:00:00.305Z,21.78
2022-08-04T16:05:36.658Z,21.23
2022-08-04T16:10:43.277Z,21.36
2022-08-04T16:15:49.170Z,24.08
2022-08-04T16:20:52.330Z,27.08
2022-08-04T16:25:56.678Z,29.42
2022-08-04T16:31:03.855Z,27.47
2022-08-04T16:36:10.516Z,26.10
2022-08-04T16:41:41.963Z,26.95
2022-08-04T16:47:08.456Z,30.36
2022-08-04T16:52:13.348Z,32.29
2022-08-04T16:57:18.897Z,32.10
2022-08-04T17:02:47.024Z,33.90
2022-08-04T17:08:07.178Z,34.82
2022-08-04T17:14:03.803Z,36.53
2022-08-04T17:18:52.341Z,37.15
2022-08-04T17:24:15.326Z,37.95
2022-08-04T17:29:21.863Z,38.91
2022-08-04T17:34:26.483Z,39.96
2022-08-04T17:39:34.943Z,40.14
2022-08-04T17:44:43.556Z,41.48
2022-08-04T17:49:53.322Z,41.82
2022-08-04T17:55:02.657Z,43.31
2022-08-04T18:00:09.178Z,43.90
2022-08-04T18:05:31.871Z,44.85
2022-08-04T18:10:56.819Z,44.60
2022-08-04T18:16:12.570Z,45.59
2022-08-04T18:21:23.456Z,46.13
2022-08-04T18:26:27.879Z,46.97
2022-08-04T18:31:33.552Z,47.08
2022-08-04T18:36:39.037Z,47.93
2022-08-04T18:42:02.139Z,47.95
2022-08-04T18:47:22.551Z,48.56
2022-08-04T18:52:29.053Z,48.80
2022-08-04T18:58:01.174Z,48.29
2022-08-04T19:02:57.282Z,48.69
2022-08-04T19:13:25.630Z,48.69
2022-08-04T19:18:32.543Z,49.38
2022-08-04T19:24:27.516Z,49.26
2022-08-04T19:29:01.899Z,49.15
2022-08-04T19:34:07.413Z,48.54
2022-08-04T19:39:11.909Z,49.70
2022-08-04T19:44:14.958Z,50.01
2022-08-04T19:50:04.431Z,49.94
2022-08-04T19:54:42.419Z,49.66
2022-08-04T19:59:49.750Z,50.00
2022-08-04T20:04:59.381Z,51.59
2022-08-04T20:10:04.339Z,52.03
2022-08-04T20:15:08.300Z,52.49
2022-08-04T20:20:16.716Z,52.84
2022-08-04T20:25:36.065Z,53.45
2022-08-04T20:30:40.533Z,54.99
2022-08-04T20:36:00.622Z,55.79
2022-08-04T20:41:08.150Z,56.31
2022-08-04T20:46:17.879Z,57.29
2022-08-04T20:51:31.488Z,58.57
2022-08-04T20:56:36.769Z,59.58
2022-08-04T21:01:39.542Z,60.19
2022-08-04T21:06:50.253Z,61.45
2022-08-04T21:11:53.060Z,62.67
2022-08-04T21:16:57.615Z,63.74
2022-08-04T21:22:04.132Z,63.70
2022-08-04T21:27:09.786Z,65.12
2022-08-04T21:32:12.790Z,65.74
2022-08-04T21:37:18.136Z,65.14
2022-08-04T21:42:29.185Z,64.25
2022-08-04T21:47:46.489Z,65.24
2022-08-04T21:52:53.611Z,66.50
2022-08-04T21:57:58.734Z,67.37
2022-08-04T22:03:03.188Z,66.99
2022-08-04T22:08:07.541Z,68.58
2022-08-04T22:13:22.962Z,71.24
2022-08-04T22:18:27.820Z,72.53
2022-08-04T22:23:45.264Z,73.40
2022-08-04T22:28:49.614Z,76.67
2022-08-04T22:33:55.419Z,77.69
2022-08-04T22:39:06.937Z,78.54
2022-08-04T22:44:15.343Z,79.87
2022-08-04T22:49:18.939Z,80.60
2022-08-04T22:54:29.664Z,79.69
2022-08-04T22:59:34.540Z,81.72
2022-08-04T23:04:37.712Z,80.74
2022-08-04T23:09:50.061Z,82.19
2022-08-04T23:14:54.944Z,82.68
2022-08-04T23:20:00.038Z,80.95
2022-08-04T23:25:04.707Z,82.59
2022-08-04T23:30:08.422Z,82.25
2022-08-04T23:35:11.310Z,82.88
2022-08-04T23:40:32.722Z,84.90
2022-08-04T23:46:06.889Z,86.11
2022-08-04T23:51:04.351Z,98.77
2022-08-04T23:56:19.678Z,100.00
